Time;durP1;ratioP1;P1;durP2;ratioP2;P2;SDS_P1;SDS_P2;PMS_P1;PMS_P2;Temp;Humidity;BMP_temperature;BMP_pressure;BME280_temperature;BME280_humidity;BME280_pressure;Samples;Min_cycle;Max_cycle;Signal;HPM_P1;HPM_P2
2021/01/17 00:00:07;;;;;;;29.20;16.43;;;-0.10;99.90;;;;;;5008685;28;20200;-63
2021/01/17 00:02:33;;;;;;;31.67;17.53;;;-0.10;99.90;;;;;;5006171;28;20176;-64
2021/01/17 00:04:59;;;;;;;28.37;16.17;;;-0.10;99.90;;;;;;5009868;28;20274;-63
2021/01/17 00:07:28;;;;;;;26.20;14.63;;;0.00;99.90;;;;;;4991638;28;20208;-63
2021/01/17 00:09:54;;;;;;;35.97;17.13;;;0.00;99.90;;;;;;4995234;28;20169;-64
2021/01/17 00:12:19;;;;;;;30.83;16.73;;;0.00;99.90;;;;;;4996826;28;20592;-64
2021/01/17 00:14:45;;;;;;;25.43;15.80;;;-0.10;99.90;;;;;;4996120;28;20173;-64
2021/01/17 00:17:10;;;;;;;29.30;15.60;;;-0.10;99.90;;;;;;5013873;28;20585;-63
2021/01/17 00:19:36;;;;;;;32.10;17.93;;;-0.10;99.90;;;;;;5015801;28;20187;-62
2021/01/17 00:22:02;;;;;;;24.70;15.70;;;-0.10;99.90;;;;;;4998635;28;20275;-64
2021/01/17 00:24:28;;;;;;;28.93;15.33;;;0.00;99.90;;;;;;4996854;28;20169;-64
2021/01/17 00:26:53;;;;;;;29.90;14.83;;;-0.10;99.90;;;;;;5015038;28;20261;-64
2021/01/17 00:29:19;;;;;;;27.17;14.97;;;-0.10;99.90;;;;;;5015161;28;20168;-64
2021/01/17 00:31:44;;;;;;;35.93;17.87;;;-0.10;99.90;;;;;;5006675;28;20184;-63
2021/01/17 00:34:10;;;;;;;29.07;15.60;;;-0.10;99.90;;;;;;5015239;28;20660;-64
2021/01/17 00:36:37;;;;;;;27.97;16.03;;;-0.10;99.90;;;;;;4997151;28;20267;-64
2021/01/17 00:39:04;;;;;;;31.17;16.50;;;0.00;99.90;;;;;;4995252;28;20613;-64
2021/01/17 00:41:34;;;;;;;28.00;17.53;;;-0.10;99.90;;;;;;5011128;28;20184;-64
2021/01/17 00:43:59;;;;;;;28.73;16.20;;;-0.10;99.90;;;;;;4998896;28;20181;-64
2021/01/17 00:46:25;;;;;;;27.80;17.23;;;-0.10;99.90;;;;;;5014745;28;20215;-63
2021/01/17 00:48:51;;;;;;;32.37;17.83;;;-0.10;99.90;;;;;;5014230;28;20172;-64
2021/01/17 00:51:17;;;;;;;32.57;18.47;;;-0.10;99.90;;;;;;4995328;28;20173;-63
2021/01/17 00:53:43;;;;;;;32.30;17.20;;;-0.10;99.90;;;;;;4995252;28;20173;-63
2021/01/17 00:56:08;;;;;;;30.60;16.97;;;-0.10;99.90;;;;;;5013362;28;20207;-62
2021/01/17 00:58:34;;;;;;;29.60;17.20;;;-0.10;99.90;;;;;;5003893;28;20184;-63
2021/01/17 01:00:59;;;;;;;36.87;17.90;;;-0.10;99.90;;;;;;4996243;28;20179;-63
2021/01/17 01:03:26;;;;;;;27.13;15.73;;;-0.10;99.90;;;;;;5011879;28;20184;-63
2021/01/17 01:05:51;;;;;;;33.43;20.30;;;0.00;99.90;;;;;;5008443;28;20219;-64
2021/01/17 01:08:17;;;;;;;33.43;18.07;;;0.00;99.90;;;;;;4994817;28;20169;-64
2021/01/17 01:10:42;;;;;;;33.90;17.57;;;0.00;99.90;;;;;;4998721;28;20168;-63
2021/01/17 01:13:08;;;;;;;29.77;16.70;;;0.00;99.90;;;;;;5014541;28;20180;-64
2021/01/17 01:15:34;;;;;;;31.37;17.50;;;0.00;99.90;;;;;;5012661;28;20709;-64
2021/01/17 01:17:59;;;;;;;33.97;19.03;;;0.00;99.90;;;;;;4995523;28;20177;-64
2021/01/17 01:20:25;;;;;;;30.97;18.63;;;0.10;99.90;;;;;;4996480;28;20180;-63
2021/01/17 01:22:51;;;;;;;43.47;21.17;;;0.10;99.90;;;;;;5014859;28;20176;-63
2021/01/17 01:25:16;;;;;;;33.23;18.77;;;0.10;99.90;;;;;;5013228;28;20196;-62
2021/01/17 01:27:48;;;;;;;43.80;21.83;;;0.10;99.90;;;;;;4994239;28;20201;-62
2021/01/17 01:30:15;;;;;;;36.53;18.40;;;0.10;99.90;;;;;;4999074;28;20180;-63
2021/01/17 01:32:41;;;;;;;37.23;18.80;;;0.20;99.90;;;;;;4994474;28;20530;-64
2021/01/17 01:35:07;;;;;;;36.83;18.87;;;0.20;99.90;;;;;;4997320;28;21016;-63
2021/01/17 01:37:37;;;;;;;35.93;19.43;;;0.20;99.90;;;;;;5013842;28;20211;-63
2021/01/17 01:40:06;;;;;;;35.40;18.40;;;0.20;99.90;;;;;;5011628;28;20184;-63
2021/01/17 01:42:32;;;;;;;30.77;17.97;;;0.20;99.90;;;;;;5002170;28;20184;-63
2021/01/17 01:44:57;;;;;;;31.57;16.50;;;0.10;99.90;;;;;;5012485;28;20179;-63
2021/01/17 01:47:25;;;;;;;36.03;18.90;;;0.10;99.90;;;;;;4993930;28;20209;-63
2021/01/17 01:49:54;;;;;;;28.10;15.77;;;0.20;99.90;;;;;;4994260;28;20171;-63
2021/01/17 01:52:20;;;;;;;35.17;17.30;;;0.20;99.90;;;;;;4994244;28;20179;-63
2021/01/17 01:54:47;;;;;;;32.87;17.90;;;0.20;99.90;;;;;;4994095;28;20185;-63
2021/01/17 01:57:12;;;;;;;30.20;16.63;;;0.20;99.90;;;;;;4993744;28;20586;-63
2021/01/17 01:59:38;;;;;;;32.63;19.23;;;0.20;99.90;;;;;;4995127;28;20185;-63
2021/01/17 02:02:09;;;;;;;31.37;17.20;;;0.20;99.90;;;;;;4994075;28;20192;-64
2021/01/17 02:04:38;;;;;;;33.97;17.50;;;0.20;99.90;;;;;;5006050;28;20542;-64
2021/01/17 02:07:28;;;;;;;35.50;17.73;;;0.20;99.90;;;;;;5013053;28;20258;-64
2021/01/17 02:09:53;;;;;;;33.40;18.33;;;0.20;99.90;;;;;;4998973;28;20184;-64
2021/01/17 02:12:43;;;;;;;31.70;18.17;;;0.30;99.90;;;;;;4994052;28;20662;-63
2021/01/17 02:15:13;;;;;;;35.50;17.27;;;0.20;99.90;;;;;;4993713;28;20193;-63
2021/01/17 02:17:40;;;;;;;29.97;17.13;;;0.20;99.90;;;;;;4993380;28;20211;-63
2021/01/17 02:20:21;;;;;;;28.50;17.40;;;0.30;99.90;;;;;;4995449;28;20251;-63
2021/01/17 02:23:18;;;;;;;36.93;17.27;;;0.20;99.90;;;;;;5013163;28;20226;-63
2021/01/17 02:25:45;;;;;;;32.80;18.27;;;0.30;99.90;;;;;;5005408;28;20213;-63
2021/01/17 02:28:16;;;;;;;40.57;18.10;;;0.30;99.90;;;;;;4993165;28;20173;-63
2021/01/17 02:30:47;;;;;;;34.47;17.57;;;0.20;99.90;;;;;;4995537;28;20188;-63
2021/01/17 02:33:34;;;;;;;34.17;18.30;;;0.20;99.90;;;;;;4992405;28;20573;-63
2021/01/17 02:36:17;;;;;;;29.83;17.33;;;0.20;99.90;;;;;;5008247;28;20215;-64
2021/01/17 02:38:54;;;;;;;38.67;20.50;;;0.20;99.90;;;;;;5008532;28;20193;-63
2021/01/17 02:41:43;;;;;;;37.17;19.17;;;0.20;99.90;;;;;;4993258;28;20201;-64
2021/01/17 02:44:09;;;;;;;36.30;17.17;;;0.20;99.90;;;;;;4999747;28;20295;-64
2021/01/17 02:46:35;;;;;;;41.93;19.10;;;0.20;99.90;;;;;;5011202;28;20224;-64
2021/01/17 02:49:00;;;;;;;35.13;19.27;;;0.20;99.90;;;;;;5007018;28;20184;-64
2021/01/17 02:51:31;;;;;;;34.07;19.10;;;0.20;99.90;;;;;;4993881;28;20267;-65
2021/01/17 02:54:16;;;;;;;34.97;18.60;;;0.20;99.90;;;;;;4998224;28;20200;-64
2021/01/17 02:56:54;;;;;;;31.70;17.10;;;0.20;99.90;;;;;;5013973;28;20803;-68
2021/01/17 02:59:24;;;;;;;31.20;18.10;;;0.20;99.90;;;;;;4999027;28;20181;-65
2021/01/17 03:01:54;;;;;;;37.43;18.30;;;0.20;99.90;;;;;;5007722;28;20172;-65
2021/01/17 03:04:29;;;;;;;36.53;19.90;;;0.20;99.90;;;;;;4994442;28;20182;-65
2021/01/17 03:06:58;;;;;;;36.53;18.53;;;0.20;99.90;;;;;;4994260;28;20302;-66
2021/01/17 03:09:28;;;;;;;32.17;17.70;;;0.20;99.90;;;;;;5013562;28;20204;-67
2021/01/17 03:11:54;;;;;;;38.90;19.17;;;0.20;99.90;;;;;;5012770;28;20173;-66
2021/01/17 03:14:20;;;;;;;37.57;20.03;;;0.20;99.90;;;;;;5013631;28;20219;-65
2021/01/17 03:16:46;;;;;;;38.20;19.23;;;0.30;99.90;;;;;;5013382;28;20196;-67
2021/01/17 03:19:11;;;;;;;37.30;20.07;;;0.30;99.90;;;;;;4994976;28;20244;-66
2021/01/17 03:21:37;;;;;;;41.83;19.80;;;0.20;99.90;;;;;;4993994;28;20690;-66
2021/01/17 03:24:03;;;;;;;36.47;19.27;;;0.20;99.90;;;;;;4995429;28;20264;-64
2021/01/17 03:26:28;;;;;;;35.17;18.87;;;0.20;99.90;;;;;;4995516;28;20266;-66
2021/01/17 03:28:54;;;;;;;36.57;18.70;;;0.30;99.90;;;;;;5013270;28;20191;-67
2021/01/17 03:31:20;;;;;;;35.97;17.87;;;0.20;99.90;;;;;;5011757;28;20180;-70
2021/01/17 03:33:45;;;;;;;33.50;18.27;;;0.20;99.90;;;;;;4994051;28;20543;-66
2021/01/17 03:36:11;;;;;;;33.40;18.30;;;0.20;99.90;;;;;;4993324;28;20212;-65
2021/01/17 03:38:36;;;;;;;40.10;19.00;;;0.20;99.90;;;;;;5010295;28;20597;-66
2021/01/17 03:41:02;;;;;;;40.07;20.03;;;0.20;99.90;;;;;;4993682;28;20637;-65
2021/01/17 03:43:28;;;;;;;37.13;19.13;;;0.20;99.90;;;;;;5008733;28;20180;-65
2021/01/17 03:45:53;;;;;;;33.20;18.77;;;0.20;99.90;;;;;;4993736;28;20292;-65
2021/01/17 03:48:19;;;;;;;35.87;19.53;;;0.40;99.90;;;;;;5007628;28;20179;-66
2021/01/17 03:50:45;;;;;;;35.53;19.27;;;0.30;99.90;;;;;;5013711;28;20176;-66
2021/01/17 03:53:10;;;;;;;35.93;19.43;;;0.30;99.90;;;;;;4999899;28;20594;-67
2021/01/17 03:55:36;;;;;;;34.87;18.70;;;0.30;99.90;;;;;;4993539;28;20196;-67
2021/01/17 03:58:01;;;;;;;38.23;20.20;;;0.30;99.90;;;;;;5011819;28;20188;-68
2021/01/17 04:00:27;;;;;;;39.97;19.93;;;0.30;99.90;;;;;;5013586;28;20164;-66
2021/01/17 04:02:53;;;;;;;34.53;18.97;;;0.20;99.90;;;;;;4994659;28;20177;-65
2021/01/17 04:05:18;;;;;;;40.57;18.80;;;0.20;99.90;;;;;;4994067;28;20203;-67
2021/01/17 04:07:44;;;;;;;39.43;18.87;;;0.20;99.90;;;;;;5008584;28;20293;-65
2021/01/17 04:10:10;;;;;;;38.37;18.17;;;0.20;99.90;;;;;;5013291;28;20169;-66
2021/01/17 04:12:35;;;;;;;37.90;20.43;;;0.20;99.90;;;;;;4999433;28;20543;-66
2021/01/17 04:15:01;;;;;;;33.87;18.17;;;0.20;99.90;;;;;;4993268;28;20193;-66
2021/01/17 04:17:27;;;;;;;32.87;18.80;;;0.30;99.90;;;;;;4994141;28;20177;-68
2021/01/17 04:19:52;;;;;;;39.03;20.20;;;0.30;99.90;;;;;;4993493;28;20546;-67
2021/01/17 04:22:18;;;;;;;34.63;19.23;;;0.40;99.90;;;;;;5003120;28;20187;-66
2021/01/17 04:24:43;;;;;;;37.97;18.73;;;0.30;99.90;;;;;;5012878;28;20172;-67
2021/01/17 04:27:09;;;;;;;35.60;18.93;;;0.40;99.90;;;;;;4997079;28;20567;-67
2021/01/17 04:29:34;;;;;;;43.27;18.93;;;0.40;99.90;;;;;;4991746;28;20212;-66
2021/01/17 04:32:00;;;;;;;37.97;19.27;;;0.40;99.90;;;;;;5006887;28;20187;-65
2021/01/17 04:34:26;;;;;;;38.37;19.77;;;0.50;99.90;;;;;;5012804;28;20192;-65
2021/01/17 04:36:51;;;;;;;41.93;20.47;;;0.50;99.90;;;;;;5000140;28;20224;-64
2021/01/17 04:39:17;;;;;;;43.23;20.23;;;0.50;99.90;;;;;;5001352;28;20180;-68
2021/01/17 04:41:45;;;;;;;38.53;19.83;;;0.50;99.90;;;;;;5012715;28;20184;-66
2021/01/17 04:44:12;;;;;;;41.90;19.43;;;0.50;99.90;;;;;;5011212;28;20184;-66
2021/01/17 04:46:39;;;;;;;35.77;18.13;;;0.60;99.90;;;;;;5002252;28;20826;-67
2021/01/17 04:49:07;;;;;;;33.87;18.20;;;0.60;99.90;;;;;;4992672;28;20177;-68
2021/01/17 04:51:33;;;;;;;39.03;19.30;;;0.50;99.90;;;;;;5000837;28;20195;-62
2021/01/17 04:54:00;;;;;;;32.63;18.27;;;0.60;99.90;;;;;;5011270;28;20173;-64
2021/01/17 04:56:30;;;;;;;33.40;18.23;;;0.60;99.90;;;;;;5005848;28;20287;-64
2021/01/17 04:59:10;;;;;;;33.97;18.93;;;0.60;99.90;;;;;;4997100;28;20243;-64
2021/01/17 05:02:02;;;;;;;36.23;19.30;;;0.50;99.90;;;;;;5014762;28;20179;-63
2021/01/17 05:04:36;;;;;;;36.63;20.07;;;0.50;99.90;;;;;;5008108;28;20328;-62
2021/01/17 05:07:16;;;;;;;36.13;19.70;;;0.50;99.90;;;;;;4995111;28;20705;-64
2021/01/17 05:10:11;;;;;;;37.10;18.13;;;0.50;99.90;;;;;;5014445;28;20179;-64
2021/01/17 05:12:48;;;;;;;36.00;18.50;;;0.50;99.90;;;;;;5009245;28;20185;-64
2021/01/17 05:15:19;;;;;;;36.70;18.83;;;0.60;99.90;;;;;;4994702;28;20688;-64
2021/01/17 05:17:45;;;;;;;33.33;18.13;;;0.50;99.90;;;;;;5014162;28;20654;-64
2021/01/17 05:20:11;;;;;;;42.17;19.27;;;0.60;99.90;;;;;;5014468;28;20259;-64
2021/01/17 05:22:37;;;;;;;43.20;20.17;;;0.50;99.90;;;;;;4999853;28;20177;-65
2021/01/17 05:25:05;;;;;;;37.83;19.50;;;0.50;99.90;;;;;;4994732;28;20192;-64
2021/01/17 05:27:32;;;;;;;33.57;18.63;;;0.50;99.90;;;;;;5010428;28;20567;-64
2021/01/17 05:29:58;;;;;;;35.20;18.27;;;0.50;99.90;;;;;;5014362;28;20164;-63
2021/01/17 05:32:24;;;;;;;40.50;20.07;;;0.50;99.90;;;;;;4998284;28;20187;-64
2021/01/17 05:34:51;;;;;;;47.30;21.53;;;0.50;99.90;;;;;;4994290;28;20231;-64
2021/01/17 05:37:17;;;;;;;35.17;17.50;;;0.50;99.90;;;;;;5274337;23;20215;-64
2021/01/17 05:39:52;;;;;;;40.70;19.67;;;0.50;99.90;;;;;;5034270;28;20170;-65
2021/01/17 05:42:20;;;;;;;38.03;18.47;;;0.50;99.90;;;;;;5019860;28;20183;-65
2021/01/17 05:44:46;;;;;;;41.93;19.80;;;0.50;99.90;;;;;;5014267;28;20164;-65
2021/01/17 05:47:11;;;;;;;43.03;20.97;;;0.50;99.90;;;;;;5044977;28;20203;-65
2021/01/17 05:49:37;;;;;;;44.60;20.87;;;0.50;99.90;;;;;;5033861;28;20708;-66
2021/01/17 05:52:13;;;;;;;37.70;19.00;;;0.60;99.90;;;;;;5050789;28;20261;-65
2021/01/17 05:54:47;;;;;;;43.60;20.57;;;0.50;99.90;;;;;;5053720;28;20240;-65
2021/01/17 05:57:25;;;;;;;38.47;20.87;;;0.60;99.90;;;;;;5035190;28;20199;-66
2021/01/17 05:59:54;;;;;;;44.37;21.03;;;0.50;99.90;;;;;;5034103;28;20168;-66
2021/01/17 06:02:24;;;;;;;34.67;18.33;;;0.50;99.90;;;;;;5051696;28;20190;-64
2021/01/17 06:05:02;;;;;;;35.80;18.23;;;0.50;99.90;;;;;;5039992;28;20190;-65
2021/01/17 06:07:30;;;;;;;33.90;18.87;;;0.50;99.90;;;;;;5035420;28;20656;-64
2021/01/17 06:10:00;;;;;;;35.63;19.03;;;0.50;99.90;;;;;;5053687;28;20163;-65
2021/01/17 06:12:38;;;;;;;36.13;20.13;;;0.50;99.90;;;;;;5051027;28;20167;-66
2021/01/17 06:15:13;;;;;;;42.57;20.83;;;0.50;99.90;;;;;;5038735;28;20167;-65
2021/01/17 06:17:45;;;;;;;40.83;20.50;;;0.50;99.90;;;;;;5049864;28;20173;-66
2021/01/17 06:20:36;;;;;;;35.23;17.77;;;0.60;99.90;;;;;;5033652;28;20186;-64
2021/01/17 06:23:05;;;;;;;34.23;18.37;;;0.60;99.90;;;;;;5039244;28;20179;-66
2021/01/17 06:25:31;;;;;;;41.83;20.30;;;0.60;99.90;;;;;;5052995;28;20182;-67
2021/01/17 06:28:14;;;;;;;38.07;19.53;;;0.60;99.90;;;;;;5048285;28;20203;-65
2021/01/17 06:30:41;;;;;;;38.43;19.07;;;0.60;99.90;;;;;;5033098;28;20259;-66
2021/01/17 06:33:07;;;;;;;39.67;20.47;;;0.60;99.90;;;;;;5052939;28;20175;-66
2021/01/17 06:35:37;;;;;;;36.67;18.93;;;0.60;99.90;;;;;;5052706;28;20187;-66
2021/01/17 06:38:15;;;;;;;34.97;19.17;;;0.50;99.90;;;;;;5031995;28;20194;-65
2021/01/17 06:40:43;;;;;;;35.57;19.67;;;0.50;99.90;;;;;;5051422;28;20624;-65
2021/01/17 06:43:10;;;;;;;43.83;22.50;;;0.50;99.90;;;;;;5052116;28;20186;-65
2021/01/17 06:45:40;;;;;;;37.07;19.20;;;0.50;99.90;;;;;;5034780;28;20245;-66
2021/01/17 06:48:07;;;;;;;38.70;19.60;;;0.60;99.90;;;;;;5039024;28;20175;-66
2021/01/17 06:50:32;;;;;;;44.10;20.13;;;0.60;99.90;;;;;;5052408;28;20703;-65
2021/01/17 06:52:58;;;;;;;37.57;19.13;;;0.60;99.90;;;;;;5047192;28;20266;-66
2021/01/17 06:55:24;;;;;;;40.30;20.27;;;0.70;99.90;;;;;;5032280;28;20186;-65
2021/01/17 06:57:51;;;;;;;39.63;18.27;;;0.70;99.90;;;;;;5034951;28;20190;-65
2021/01/17 07:00:18;;;;;;;36.93;19.67;;;0.60;99.90;;;;;;5052363;28;20171;-66
2021/01/17 07:02:53;;;;;;;41.27;21.33;;;0.70;99.90;;;;;;5050358;28;20170;-65
2021/01/17 07:05:40;;;;;;;38.30;20.23;;;0.60;99.90;;;;;;5032105;28;20185;-66
2021/01/17 07:08:38;;;;;;;44.70;22.33;;;0.70;99.90;;;;;;5035820;28;20264;-65
2021/01/17 07:11:19;;;;;;;39.97;20.10;;;0.70;99.90;;;;;;5030203;28;20241;-66
2021/01/17 07:13:48;;;;;;;42.60;20.83;;;0.70;99.90;;;;;;5040572;28;20667;-66
2021/01/17 07:16:29;;;;;;;44.47;22.87;;;0.70;99.90;;;;;;5052241;28;20202;-66
2021/01/17 07:19:02;;;;;;;41.57;21.43;;;0.70;99.90;;;;;;5033464;28;20175;-65
2021/01/17 07:21:33;;;;;;;46.00;23.90;;;0.70;99.90;;;;;;5031860;28;20306;-65
2021/01/17 07:24:03;;;;;;;43.90;21.13;;;0.70;99.90;;;;;;5032125;28;20653;-68
2021/01/17 07:26:41;;;;;;;43.67;21.97;;;0.70;99.90;;;;;;5042502;28;20561;-66
2021/01/17 07:29:08;;;;;;;51.23;24.03;;;0.80;99.90;;;;;;5042564;28;20175;-65
2021/01/17 07:31:36;;;;;;;49.63;23.63;;;0.80;99.90;;;;;;5030134;28;20171;-66
2021/01/17 07:34:14;;;;;;;47.43;23.70;;;0.80;99.90;;;;;;5047487;28;20194;-64
2021/01/17 07:36:47;;;;;;;54.97;25.57;;;0.80;99.90;;;;;;5031211;28;20206;-64
2021/01/17 07:39:16;;;;;;;45.57;22.80;;;0.80;99.90;;;;;;5045769;28;20171;-66
2021/01/17 07:41:47;;;;;;;46.97;23.33;;;0.80;99.90;;;;;;5047857;28;20187;-64
2021/01/17 07:44:16;;;;;;;50.70;25.93;;;0.90;99.90;;;;;;5052019;28;20178;-65
2021/01/17 07:46:42;;;;;;;61.03;26.50;;;0.90;99.90;;;;;;5042466;28;20198;-65
2021/01/17 07:49:11;;;;;;;62.07;24.77;;;0.90;99.90;;;;;;5038549;28;20386;-66
2021/01/17 07:51:37;;;;;;;45.57;21.87;;;0.90;99.90;;;;;;5031642;28;20179;-65
2021/01/17 07:54:05;;;;;;;47.57;21.97;;;0.90;99.90;;;;;;5032566;28;20183;-67
2021/01/17 07:56:35;;;;;;;46.27;23.30;;;1.00;99.90;;;;;;5031363;28;20282;-65
2021/01/17 07:59:05;;;;;;;49.57;24.93;;;1.10;99.90;;;;;;5041419;28;20815;-65
2021/01/17 08:01:30;;;;;;;56.70;27.50;;;1.00;99.90;;;;;;5051389;28;20171;-64
2021/01/17 08:04:17;;;;;;;54.40;27.07;;;1.10;99.90;;;;;;5042459;28;20194;-65
2021/01/17 08:06:45;;;;;;;55.50;25.43;;;1.10;99.90;;;;;;5027158;28;20229;-64
2021/01/17 08:09:15;;;;;;;56.13;25.23;;;1.10;99.90;;;;;;5046927;28;20182;-66
2021/01/17 08:11:44;;;;;;;47.47;24.07;;;1.20;99.90;;;;;;5051443;28;20177;-66
2021/01/17 08:14:19;;;;;;;49.87;22.87;;;1.20;99.90;;;;;;5037040;28;20244;-65
2021/01/17 08:17:08;;;;;;;53.63;26.83;;;1.20;99.90;;;;;;5050230;28;20194;-65
2021/01/17 08:19:40;;;;;;;57.03;26.40;;;1.30;99.90;;;;;;5033340;28;20660;-65
2021/01/17 08:22:17;;;;;;;54.37;26.87;;;1.30;99.90;;;;;;5031764;28;20577;-66
2021/01/17 08:24:45;;;;;;;43.47;23.97;;;1.30;99.90;;;;;;5038468;28;20178;-66
2021/01/17 08:27:31;;;;;;;56.70;27.07;;;1.30;99.90;;;;;;5032036;28;20700;-68
2021/01/17 08:30:10;;;;;;;50.97;24.30;;;1.30;99.90;;;;;;5037149;28;20195;-67
2021/01/17 08:32:43;;;;;;;51.20;25.00;;;1.30;99.90;;;;;;5015153;28;20168;-66
2021/01/17 08:35:15;;;;;;;52.13;24.37;;;1.30;99.90;;;;;;5030998;28;20178;-66
2021/01/17 08:37:42;;;;;;;48.67;23.53;;;1.30;99.90;;;;;;5054638;28;20193;-66
2021/01/17 08:40:08;;;;;;;52.07;24.67;;;1.30;99.90;;;;;;5036038;28;20574;-66
2021/01/17 08:42:36;;;;;;;45.57;23.93;;;1.30;99.90;;;;;;5038478;28;20182;-64
2021/01/17 08:45:21;;;;;;;55.67;24.67;;;1.40;99.90;;;;;;5040624;28;20180;-66
2021/01/17 08:47:48;;;;;;;51.53;24.90;;;1.40;99.90;;;;;;5041782;28;20655;-66
2021/01/17 08:50:37;;;;;;;52.63;23.40;;;1.40;99.90;;;;;;5034700;28;20178;-64
2021/01/17 08:53:21;;;;;;;47.07;23.60;;;1.50;99.90;;;;;;5034307;28;20171;-66
2021/01/17 08:55:57;;;;;;;52.20;25.07;;;1.50;99.90;;;;;;5043347;28;20203;-65
2021/01/17 08:58:26;;;;;;;54.83;26.40;;;1.60;99.90;;;;;;5042934;28;20577;-65
2021/01/17 09:00:51;;;;;;;49.53;22.97;;;1.60;99.90;;;;;;5029940;28;20263;-65
2021/01/17 09:03:25;;;;;;;43.17;23.40;;;1.70;99.90;;;;;;5029627;28;20747;-65
2021/01/17 09:06:13;;;;;;;48.53;24.83;;;1.70;99.90;;;;;;5042753;28;20679;-65
2021/01/17 09:08:48;;;;;;;50.00;24.40;;;1.60;99.90;;;;;;5045562;28;20194;-65
2021/01/17 09:11:29;;;;;;;52.20;25.27;;;1.60;99.90;;;;;;5040131;28;20250;-65
2021/01/17 09:14:13;;;;;;;50.43;23.87;;;1.70;99.90;;;;;;5043757;28;20261;-63
2021/01/17 09:17:03;;;;;;;51.23;24.83;;;1.70;99.90;;;;;;5039866;28;20203;-62
2021/01/17 09:19:34;;;;;;;49.97;24.23;;;1.70;99.90;;;;;;5047814;28;20551;-65
2021/01/17 09:22:02;;;;;;;56.90;24.17;;;1.60;99.90;;;;;;5051743;28;20588;-65
2021/01/17 09:24:33;;;;;;;46.80;23.37;;;1.50;99.90;;;;;;5047103;28;20179;-65
2021/01/17 09:27:01;;;;;;;53.07;23.93;;;1.60;99.90;;;;;;5045775;28;20619;-65
2021/01/17 09:29:28;;;;;;;51.67;27.03;;;1.70;99.90;;;;;;5051014;28;20225;-66
2021/01/17 09:31:57;;;;;;;52.13;25.47;;;1.70;99.90;;;;;;5041242;28;20206;-66
2021/01/17 09:34:29;;;;;;;55.70;24.77;;;1.80;99.90;;;;;;5033692;28;20210;-65
2021/01/17 09:36:55;;;;;;;49.83;25.17;;;1.80;99.90;;;;;;5044541;28;20219;-67
2021/01/17 09:39:29;;;;;;;54.80;24.03;;;1.80;99.90;;;;;;5053105;28;20716;-67
2021/01/17 09:41:56;;;;;;;47.53;24.60;;;1.80;99.90;;;;;;5021520;28;20174;-66
2021/01/17 09:44:22;;;;;;;53.00;25.47;;;1.70;99.90;;;;;;5052192;28;20432;-68
2021/01/17 09:46:47;;;;;;;46.53;23.60;;;1.70;99.90;;;;;;5043811;28;20674;-68
2021/01/17 09:49:13;;;;;;;54.07;26.23;;;1.70;99.90;;;;;;5033801;28;20254;-66
2021/01/17 09:51:44;;;;;;;53.00;25.20;;;1.70;99.90;;;;;;5035861;28;20187;-66
2021/01/17 09:54:10;;;;;;;52.13;26.70;;;1.80;99.90;;;;;;5055235;28;20190;-66
2021/01/17 09:56:39;;;;;;;54.97;25.70;;;1.80;99.90;;;;;;5039422;28;20195;-65
2021/01/17 09:59:17;;;;;;;51.10;26.33;;;1.80;99.90;;;;;;5034846;28;20178;-66
2021/01/17 10:01:43;;;;;;;50.70;25.53;;;1.80;99.90;;;;;;5036281;28;20186;-65
2021/01/17 10:04:23;;;;;;;54.87;24.77;;;1.90;99.90;;;;;;5036134;28;20167;-66
2021/01/17 10:06:51;;;;;;;49.17;26.13;;;1.90;99.90;;;;;;5035281;28;20241;-66
2021/01/17 10:09:18;;;;;;;62.30;27.20;;;2.00;99.90;;;;;;5053296;28;20254;-64
2021/01/17 10:11:44;;;;;;;58.97;27.63;;;2.00;99.90;;;;;;5053104;28;20167;-67
2021/01/17 10:14:12;;;;;;;55.77;26.73;;;2.10;99.90;;;;;;5045897;28;20315;-67
2021/01/17 10:16:38;;;;;;;60.37;28.07;;;2.10;99.90;;;;;;5040593;28;20199;-67
2021/01/17 10:19:07;;;;;;;46.57;25.07;;;2.10;99.90;;;;;;5033131;28;20592;-67
2021/01/17 10:21:38;;;;;;;55.33;26.20;;;2.10;99.90;;;;;;5043934;28;20179;-67
2021/01/17 10:24:06;;;;;;;52.13;26.77;;;2.20;99.90;;;;;;5050884;28;20175;-67
2021/01/17 10:26:33;;;;;;;53.63;27.73;;;2.20;99.90;;;;;;5050916;28;20229;-67
2021/01/17 10:29:05;;;;;;;58.87;27.80;;;2.20;99.90;;;;;;5051693;28;20220;-67
2021/01/17 10:31:34;;;;;;;46.47;24.33;;;2.20;99.90;;;;;;5032766;28;20207;-67
2021/01/17 10:34:00;;;;;;;49.37;24.00;;;2.20;99.90;;;;;;5032984;28;20219;-66
2021/01/17 10:36:25;;;;;;;47.60;24.80;;;2.10;99.90;;;;;;5052807;28;20210;-66
2021/01/17 10:38:52;;;;;;;50.97;25.10;;;2.10;99.90;;;;;;5039783;28;20262;-66
2021/01/17 10:41:26;;;;;;;52.03;26.50;;;2.20;99.90;;;;;;5034386;28;20172;-66
2021/01/17 10:44:01;;;;;;;55.87;29.13;;;2.20;99.90;;;;;;5052426;28;20667;-65
2021/01/17 10:46:28;;;;;;;48.73;25.77;;;2.30;99.90;;;;;;5035367;28;20195;-66
2021/01/17 10:49:10;;;;;;;46.70;24.60;;;2.30;99.90;;;;;;5032412;28;20170;-65
2021/01/17 10:51:46;;;;;;;55.63;26.83;;;2.40;99.90;;;;;;5033708;28;20253;-67
2021/01/17 10:54:21;;;;;;;50.80;27.67;;;2.50;99.90;;;;;;5042758;28;20209;-66
2021/01/17 10:56:47;;;;;;;55.67;27.83;;;2.60;99.90;;;;;;5044446;28;20206;-66
2021/01/17 10:59:14;;;;;;;52.63;25.50;;;2.60;99.90;;;;;;5052429;28;20177;-67
2021/01/17 11:01:46;;;;;;;47.93;24.23;;;2.60;99.90;;;;;;5036636;28;20198;-65
2021/01/17 11:04:14;;;;;;;53.13;26.97;;;2.60;99.90;;;;;;5032857;28;20532;-67
2021/01/17 11:06:45;;;;;;;49.50;25.80;;;2.60;99.90;;;;;;5042222;28;20579;-65
2021/01/17 11:09:17;;;;;;;56.83;26.77;;;2.60;99.90;;;;;;5035673;28;20245;-67
2021/01/17 11:11:47;;;;;;;56.87;26.73;;;2.60;99.90;;;;;;5032728;28;20187;-67
2021/01/17 11:14:13;;;;;;;55.53;26.50;;;2.60;99.90;;;;;;5035284;28;20175;-67
2021/01/17 11:16:43;;;;;;;50.20;26.20;;;2.60;99.90;;;;;;5035934;28;20689;-67
2021/01/17 11:19:11;;;;;;;49.07;24.87;;;2.70;99.90;;;;;;5015470;28;20176;-67
2021/01/17 11:21:38;;;;;;;49.93;25.50;;;2.80;99.90;;;;;;5029554;28;20175;-66
2021/01/17 11:24:05;;;;;;;54.93;25.97;;;2.90;99.90;;;;;;5034361;28;20190;-65
2021/01/17 11:26:31;;;;;;;48.20;25.57;;;2.90;99.90;;;;;;5038260;28;20206;-66
2021/01/17 11:28:59;;;;;;;54.70;27.03;;;3.00;99.90;;;;;;5052082;28;20193;-67
2021/01/17 11:31:25;;;;;;;49.53;24.50;;;3.00;99.90;;;;;;5038935;28;20542;-67
2021/01/17 11:33:52;;;;;;;58.13;28.77;;;2.90;99.90;;;;;;5036066;28;20203;-66
2021/01/17 11:38:50;;;;;;;52.20;25.33;;;2.90;99.90;;;;;;4989898;28;20213;-66
2021/01/17 11:41:17;;;;;;;49.67;26.53;;;3.10;99.90;;;;;;4992493;28;20172;-66
2021/01/17 11:43:44;;;;;;;47.47;26.03;;;3.20;99.90;;;;;;4980814;28;20676;-66
2021/01/17 11:46:11;;;;;;;53.57;25.47;;;3.30;99.90;;;;;;4972756;28;20690;-66
2021/01/17 11:48:37;;;;;;;48.60;25.73;;;3.30;99.90;;;;;;4982609;28;20173;-66
2021/01/17 11:51:04;;;;;;;50.00;25.93;;;3.20;99.90;;;;;;4992293;28;20279;-66
2021/01/17 11:53:31;;;;;;;56.80;27.90;;;3.20;99.90;;;;;;4983054;28;20181;-66
2021/01/17 11:55:57;;;;;;;54.57;26.83;;;3.20;99.90;;;;;;4971512;28;20178;-66
2021/01/17 11:58:24;;;;;;;53.13;26.33;;;3.20;99.90;;;;;;4978705;28;20256;-66
2021/01/17 12:01:02;;;;;;;54.17;25.87;;;3.30;99.90;;;;;;4992220;28;20181;-66
2021/01/17 12:03:32;;;;;;;53.37;27.07;;;3.30;99.90;;;;;;4975346;28;20289;-66
2021/01/17 12:06:18;;;;;;;62.47;29.07;;;3.30;99.90;;;;;;4987314;28;20603;-65
2021/01/17 12:09:06;;;;;;;54.20;29.00;;;3.20;99.90;;;;;;4978888;28;20180;-66
2021/01/17 12:11:33;;;;;;;50.20;25.13;;;3.10;99.90;;;;;;4990981;28;20180;-65
2021/01/17 12:14:00;;;;;;;50.90;25.67;;;3.00;99.90;;;;;;4976553;28;20192;-65
2021/01/17 12:16:43;;;;;;;41.10;24.43;;;2.90;99.90;;;;;;4981935;28;20208;-64
2021/01/17 12:19:11;;;;;;;55.53;26.03;;;2.90;99.90;;;;;;4995746;28;20169;-65
2021/01/17 12:21:37;;;;;;;51.40;26.13;;;3.00;99.90;;;;;;4989215;28;20188;-65
2021/01/17 12:24:05;;;;;;;51.33;27.20;;;3.20;99.90;;;;;;4976310;28;20269;-65
2021/01/17 12:26:31;;;;;;;51.90;27.97;;;3.30;99.90;;;;;;4981569;28;20208;-65
2021/01/17 12:28:57;;;;;;;50.47;25.97;;;3.20;99.90;;;;;;4995402;28;20173;-64
2021/01/17 12:31:24;;;;;;;60.63;26.90;;;3.00;99.90;;;;;;4982517;28;20232;-64
2021/01/17 12:33:50;;;;;;;46.83;25.07;;;2.90;99.90;;;;;;4976173;28;20586;-65
2021/01/17 12:36:21;;;;;;;48.23;26.27;;;2.80;99.90;;;;;;4987084;28;20185;-64
2021/01/17 12:38:47;;;;;;;48.77;23.73;;;2.80;99.90;;;;;;4975239;28;20251;-64
2021/01/17 12:41:19;;;;;;;48.93;26.00;;;2.90;99.90;;;;;;4985098;28;20181;-65
2021/01/17 12:43:45;;;;;;;48.83;23.90;;;2.90;99.90;;;;;;4995348;28;20571;-64
2021/01/17 12:46:12;;;;;;;50.10;24.40;;;2.90;99.90;;;;;;4985367;28;20257;-65
2021/01/17 12:48:38;;;;;;;51.43;27.20;;;2.90;99.90;;;;;;4975384;28;20260;-65
2021/01/17 12:51:08;;;;;;;48.63;24.53;;;2.90;99.90;;;;;;4983741;28;20180;-65